createdAt,value
2023-01-13T00:00:37.117Z,74.60
2023-01-13T00:01:36.843Z,74.40
2023-01-13T00:02:37.040Z,74.53
2023-01-13T00:03:36.882Z,75.56
2023-01-13T00:04:37.141Z,75.87
2023-01-13T00:05:36.933Z,75.15
2023-01-13T00:06:36.961Z,75.56
2023-01-13T00:07:37.022Z,75.36
2023-01-13T00:08:36.940Z,75.26
2023-01-13T00:09:36.978Z,75.46
2023-01-13T00:10:36.976Z,75.26
2023-01-13T00:11:36.882Z,74.84
2023-01-13T00:12:36.712Z,74.53
2023-01-13T00:13:37.036Z,74.63
2023-01-13T00:14:36.772Z,74.63
2023-01-13T00:15:36.942Z,74.84
2023-01-13T00:16:36.715Z,74.80
2023-01-13T00:17:36.881Z,74.33
2023-01-13T00:18:36.740Z,73.91
2023-01-13T00:19:36.862Z,74.40
2023-01-13T00:20:36.701Z,74.60
2023-01-13T00:21:36.844Z,74.12
2023-01-13T00:22:36.689Z,74.33
2023-01-13T00:23:36.923Z,74.74
2023-01-13T00:24:36.922Z,74.74
2023-01-13T00:25:36.784Z,74.53
2023-01-13T00:26:36.692Z,74.46
2023-01-13T00:27:36.557Z,74.57
2023-01-13T00:28:36.743Z,74.67
2023-01-13T00:29:36.690Z,74.15
2023-01-13T00:30:36.713Z,74.84
2023-01-13T00:31:36.591Z,75.26
2023-01-13T00:32:36.783Z,75.36
2023-01-13T00:33:36.575Z,75.26
2023-01-13T00:34:36.728Z,75.26
2023-01-13T00:35:36.581Z,75.70
2023-01-13T00:36:36.768Z,74.88
2023-01-13T00:37:36.604Z,75.70
2023-01-13T00:38:36.675Z,74.57
2023-01-13T00:39:36.604Z,75.29
2023-01-13T00:40:36.794Z,75.81
2023-01-13T00:41:36.602Z,76.01
2023-01-13T00:42:36.401Z,76.12
2023-01-13T00:43:36.600Z,76.12
2023-01-13T00:44:36.443Z,76.53
2023-01-13T00:45:36.534Z,76.53
2023-01-13T00:46:36.571Z,76.53
2023-01-13T00:47:36.655Z,76.32
2023-01-13T00:48:36.502Z,76.21
2023-01-13T00:49:36.553Z,75.18
2023-01-13T00:50:36.357Z,75.39
2023-01-13T00:51:36.573Z,75.12
2023-01-13T00:52:36.344Z,75.81
2023-01-13T00:53:36.497Z,75.91
2023-01-13T00:54:36.480Z,76.32
2023-01-13T00:55:36.473Z,76.21
2023-01-13T00:56:41.039Z,76.53
2023-01-13T00:57:36.298Z,76.21
2023-01-13T00:58:36.466Z,76.12
2023-01-13T00:59:36.289Z,76.63
2023-01-13T01:00:36.482Z,76.63
2023-01-13T01:01:36.319Z,75.29
2023-01-13T01:02:36.484Z,75.81
2023-01-13T01:03:36.253Z,76.53
2023-01-13T01:04:36.473Z,76.53
2023-01-13T01:05:36.268Z,76.73
2023-01-13T01:06:36.444Z,74.88
2023-01-13T01:07:36.302Z,75.09
2023-01-13T01:08:36.382Z,75.60
2023-01-13T01:09:36.197Z,75.29
2023-01-13T01:10:36.534Z,75.81
2023-01-13T01:11:36.334Z,75.49
2023-01-13T01:12:36.055Z,75.39
2023-01-13T01:13:36.271Z,75.29
2023-01-13T01:14:36.153Z,75.29
2023-01-13T01:15:36.302Z,75.49
2023-01-13T01:16:36.017Z,75.29
2023-01-13T01:17:36.258Z,75.74
2023-01-13T01:18:36.112Z,75.74
2023-01-13T01:19:36.266Z,75.84
2023-01-13T01:20:36.121Z,76.15
2023-01-13T01:21:36.203Z,76.15
2023-01-13T01:22:36.036Z,76.04
2023-01-13T01:23:36.170Z,76.15
2023-01-13T01:24:36.075Z,76.12
2023-01-13T01:25:36.095Z,75.91
2023-01-13T01:26:36.096Z,76.12
2023-01-13T01:27:35.949Z,76.01
2023-01-13T01:28:36.152Z,76.32
2023-01-13T01:29:35.934Z,76.01
2023-01-13T01:30:36.075Z,75.60
2023-01-13T01:31:35.901Z,75.09
2023-01-13T01:32:36.035Z,75.09
2023-01-13T01:33:35.985Z,74.98
2023-01-13T01:34:36.134Z,75.29
2023-01-13T01:35:35.904Z,75.60
2023-01-13T01:36:36.004Z,76.01
2023-01-13T01:37:35.923Z,76.01
2023-01-13T01:38:36.002Z,76.12
2023-01-13T01:39:35.953Z,75.81
2023-01-13T01:40:35.957Z,75.49
2023-01-13T01:41:35.953Z,75.70
2023-01-13T01:42:35.984Z,75.81
2023-01-13T01:43:35.904Z,75.49
2023-01-13T01:44:35.822Z,75.39
2023-01-13T01:45:36.022Z,75.26
2023-01-13T01:46:35.821Z,75.26
2023-01-13T01:47:35.894Z,74.84
2023-01-13T01:48:35.815Z,75.91
2023-01-13T01:49:35.943Z,76.08
2023-01-13T01:50:35.776Z,76.29
2023-01-13T01:51:35.883Z,77.15
2023-01-13T01:52:35.707Z,77.35
2023-01-13T01:53:35.853Z,77.45
2023-01-13T01:54:35.737Z,77.04
2023-01-13T01:55:35.904Z,77.04
2023-01-13T01:56:35.756Z,76.53
2023-01-13T01:57:35.845Z,76.63
2023-01-13T01:58:35.732Z,76.42
2023-01-13T01:59:35.533Z,77.04
2023-01-13T02:00:35.973Z,76.84
2023-01-13T02:01:35.661Z,76.73
2023-01-13T02:02:35.774Z,77.04
2023-01-13T02:03:35.592Z,76.84
2023-01-13T02:04:35.813Z,76.94
2023-01-13T02:05:35.623Z,77.15
2023-01-13T02:06:35.814Z,77.59
2023-01-13T02:07:35.586Z,77.18
2023-01-13T02:08:35.694Z,76.98
2023-01-13T02:09:35.613Z,77.28
2023-01-13T02:10:35.863Z,77.70
2023-01-13T02:11:35.696Z,77.80
2023-01-13T02:12:35.655Z,78.42
2023-01-13T02:13:35.543Z,78.77
2023-01-13T02:14:35.532Z,78.63
2023-01-13T02:15:35.821Z,78.66
2023-01-13T02:16:35.442Z,78.56
2023-01-13T02:17:35.572Z,78.31
2023-01-13T02:18:35.474Z,78.31
2023-01-13T02:19:35.602Z,78.11
2023-01-13T02:20:35.611Z,78.83
2023-01-13T02:21:35.784Z,79.04
2023-01-13T02:22:35.412Z,79.04
2023-01-13T02:23:35.551Z,79.18
2023-01-13T02:24:35.424Z,79.18
2023-01-13T02:25:35.482Z,78.87
2023-01-13T02:26:35.524Z,79.49
2023-01-13T02:27:35.534Z,79.59
2023-01-13T02:28:35.413Z,79.35
2023-01-13T02:29:35.233Z,78.83
2023-01-13T02:30:35.430Z,78.42
2023-01-13T02:31:35.322Z,78.42
2023-01-13T02:32:35.394Z,78.42
2023-01-13T02:33:35.307Z,78.52
2023-01-13T02:34:35.467Z,78.42
2023-01-13T02:35:35.252Z,78.01
2023-01-13T02:36:35.458Z,78.11
2023-01-13T02:37:35.262Z,78.63
2023-01-13T02:38:35.382Z,78.83
2023-01-13T02:39:35.312Z,78.63
2023-01-13T02:40:35.351Z,78.63
2023-01-13T02:41:35.414Z,78.31
2023-01-13T02:42:35.342Z,79.38
2023-01-13T02:43:35.472Z,79.80
2023-01-13T02:44:35.311Z,79.90
2023-01-13T02:45:35.302Z,79.49
2023-01-13T02:46:35.143Z,80.00
2023-01-13T02:47:35.463Z,80.00
2023-01-13T02:48:35.101Z,80.83
2023-01-13T02:49:35.322Z,79.80
2023-01-13T02:50:35.113Z,79.90
2023-01-13T02:51:35.289Z,80.21
2023-01-13T02:52:35.163Z,80.21
2023-01-13T02:53:35.213Z,80.25
2023-01-13T02:54:35.173Z,80.46
2023-01-13T02:55:35.233Z,79.90
2023-01-13T02:56:35.107Z,79.49
2023-01-13T02:57:35.364Z,79.49
2023-01-13T02:58:35.062Z,79.80
2023-01-13T02:59:35.393Z,80.42
2023-01-13T03:00:35.053Z,80.21
2023-01-13T03:01:35.229Z,79.80
2023-01-13T03:02:35.153Z,80.32
2023-01-13T03:03:34.984Z,80.15
2023-01-13T03:04:35.103Z,80.04
2023-01-13T03:05:34.943Z,79.90
2023-01-13T03:06:35.145Z,80.11
2023-01-13T03:07:35.023Z,80.00
2023-01-13T03:08:35.264Z,79.69
2023-01-13T03:09:34.953Z,79.28
2023-01-13T03:10:35.091Z,79.94
2023-01-13T03:11:34.973Z,80.04
2023-01-13T03:12:35.136Z,80.04
2023-01-13T03:13:34.955Z,79.94
2023-01-13T03:14:35.086Z,80.04
2023-01-13T03:15:34.933Z,80.25
2023-01-13T03:16:34.837Z,80.25
2023-01-13T03:17:35.013Z,80.15
2023-01-13T03:18:34.832Z,79.94
2023-01-13T03:19:34.984Z,79.83
2023-01-13T03:20:34.775Z,79.38
2023-01-13T03:21:34.945Z,79.38
2023-01-13T03:22:34.843Z,79.49
2023-01-13T03:23:35.004Z,80.11
2023-01-13T03:24:34.837Z,79.59
2023-01-13T03:25:34.914Z,78.70
2023-01-13T03:26:34.784Z,78.91
2023-01-13T03:27:34.912Z,79.42
2023-01-13T03:28:34.903Z,79.83
2023-01-13T03:29:34.950Z,79.94
2023-01-13T03:30:34.818Z,79.52
2023-01-13T03:31:34.627Z,79.42
2023-01-13T03:32:34.838Z,79.32
2023-01-13T03:33:34.688Z,78.91
2023-01-13T03:34:34.763Z,78.80
2023-01-13T03:35:34.634Z,78.80
2023-01-13T03:36:34.992Z,78.39
2023-01-13T03:37:34.599Z,78.39
2023-01-13T03:38:34.841Z,78.08
2023-01-13T03:39:34.672Z,78.35
2023-01-13T03:40:34.751Z,77.73
2023-01-13T03:41:34.844Z,78.14
2023-01-13T03:42:34.814Z,77.63
2023-01-13T03:43:34.843Z,77.39
2023-01-13T03:44:34.735Z,77.49
2023-01-13T03:45:34.673Z,77.39
2023-01-13T03:46:34.665Z,77.28
2023-01-13T03:47:34.610Z,77.49
2023-01-13T03:48:34.553Z,77.32
2023-01-13T03:49:34.711Z,77.22
2023-01-13T03:50:34.557Z,77.42
2023-01-13T03:51:34.618Z,77.84
2023-01-13T03:52:34.526Z,77.59
2023-01-13T03:53:34.743Z,77.18
2023-01-13T03:54:34.525Z,76.87
2023-01-13T03:55:34.620Z,76.77
2023-01-13T03:56:34.525Z,76.67
2023-01-13T03:57:34.614Z,76.67
2023-01-13T03:58:34.683Z,76.87
2023-01-13T03:59:34.551Z,76.87
2023-01-13T04:00:34.474Z,76.98
2023-01-13T04:01:34.684Z,77.18
2023-01-13T04:02:34.474Z,77.08
2023-01-13T04:03:34.399Z,77.42
2023-01-13T04:04:34.600Z,77.84
2023-01-13T04:05:34.523Z,78.25
2023-01-13T04:06:34.505Z,78.35
2023-01-13T04:07:34.493Z,78.35
2023-01-13T04:08:34.484Z,78.14
2023-01-13T04:09:34.395Z,78.05
2023-01-13T04:10:34.424Z,78.05
2023-01-13T04:11:34.272Z,78.14
2023-01-13T04:12:34.428Z,78.25
2023-01-13T04:13:34.315Z,78.14
2023-01-13T04:14:34.504Z,78.05
2023-01-13T04:15:34.541Z,77.84
2023-01-13T04:16:36.888Z,77.94
2023-01-13T04:17:34.527Z,78.05
2023-01-13T04:18:34.174Z,77.84
2023-01-13T04:19:34.550Z,77.84
2023-01-13T04:20:34.233Z,77.63
2023-01-13T04:21:34.362Z,77.73
2023-01-13T04:22:34.294Z,77.53
2023-01-13T04:23:34.347Z,77.42
2023-01-13T04:24:34.223Z,77.53
2023-01-13T04:25:34.367Z,77.63
2023-01-13T04:26:34.132Z,77.42
2023-01-13T04:27:34.321Z,78.05
2023-01-13T04:28:34.423Z,77.94
2023-01-13T04:29:34.306Z,77.73
2023-01-13T04:30:34.132Z,78.05
2023-01-13T04:31:34.286Z,77.73
2023-01-13T04:32:34.158Z,77.84
2023-01-13T04:33:34.233Z,77.53
2023-01-13T04:34:34.244Z,78.14
2023-01-13T04:35:33.989Z,78.45
2023-01-13T04:36:34.133Z,77.73
2023-01-13T04:37:33.940Z,77.11
2023-01-13T04:38:34.219Z,77.42
2023-01-13T04:39:34.022Z,77.42
2023-01-13T04:40:34.127Z,77.11
2023-01-13T04:41:34.093Z,76.90
2023-01-13T04:42:34.127Z,76.81
2023-01-13T04:43:33.969Z,76.70
2023-01-13T04:44:34.204Z,76.67
2023-01-13T04:45:34.042Z,76.46
2023-01-13T04:46:34.188Z,77.01
2023-01-13T04:47:33.945Z,77.32
2023-01-13T04:48:34.143Z,78.14
2023-01-13T04:49:34.019Z,77.53
2023-01-13T04:50:33.869Z,77.63
2023-01-13T04:51:33.993Z,77.73
2023-01-13T04:52:33.814Z,77.01
2023-01-13T04:53:33.983Z,76.56
2023-01-13T04:54:33.818Z,76.56
2023-01-13T04:55:34.067Z,76.67
2023-01-13T04:56:33.814Z,76.77
2023-01-13T04:57:33.932Z,77.18
2023-01-13T04:58:33.832Z,76.67
2023-01-13T04:59:34.669Z,77.08
2023-01-13T05:00:33.854Z,76.87
2023-01-13T05:01:34.074Z,76.67
2023-01-13T05:02:33.935Z,76.87
2023-01-13T05:03:33.933Z,77.28
2023-01-13T05:04:33.855Z,76.77
2023-01-13T05:05:33.712Z,76.56
2023-01-13T05:06:33.815Z,77.18
2023-01-13T05:07:33.747Z,76.67
2023-01-13T05:08:33.814Z,77.49
2023-01-13T05:09:33.683Z,76.56
2023-01-13T05:10:33.948Z,76.46
2023-01-13T05:11:33.666Z,76.25
2023-01-13T05:12:33.833Z,76.35
2023-01-13T05:13:33.685Z,75.95
2023-01-13T05:14:33.837Z,76.04
2023-01-13T05:15:33.850Z,76.56
2023-01-13T05:16:33.754Z,76.56
2023-01-13T05:17:33.671Z,76.15
2023-01-13T05:18:33.728Z,76.15
2023-01-13T05:19:33.712Z,76.46
2023-01-13T05:20:33.503Z,76.77
2023-01-13T05:21:33.755Z,76.46
2023-01-13T05:22:33.612Z,76.35
2023-01-13T05:23:33.664Z,76.56
2023-01-13T05:24:33.611Z,76.56
2023-01-13T05:25:33.695Z,76.46
2023-01-13T05:26:33.636Z,76.25
2023-01-13T05:27:33.696Z,76.56
2023-01-13T05:28:33.586Z,76.77
2023-01-13T05:29:33.698Z,76.77
2023-01-13T05:30:33.516Z,76.56
2023-01-13T05:31:33.739Z,76.77
2023-01-13T05:32:33.833Z,76.77
2023-01-13T05:33:35.730Z,77.18
2023-01-13T05:34:33.535Z,77.08
2023-01-13T05:35:33.343Z,77.08
2023-01-13T05:36:33.556Z,76.87
2023-01-13T05:37:33.403Z,76.67
2023-01-13T05:38:33.483Z,76.56
2023-01-13T05:39:33.414Z,76.87
2023-01-13T05:40:33.576Z,76.56
2023-01-13T05:41:33.515Z,76.56
2023-01-13T05:42:33.488Z,76.67
2023-01-13T05:43:33.323Z,76.87
2023-01-13T05:44:33.501Z,76.87
2023-01-13T05:45:33.540Z,76.87
2023-01-13T05:46:33.609Z,77.18
2023-01-13T05:47:33.440Z,77.08
2023-01-13T05:48:33.463Z,78.01
2023-01-13T05:49:33.353Z,78.21
2023-01-13T05:50:33.445Z,78.56
2023-01-13T05:51:33.464Z,78.01
2023-01-13T05:52:33.174Z,78.01
2023-01-13T05:53:33.389Z,78.25
2023-01-13T05:54:33.235Z,78.05
2023-01-13T05:55:37.534Z,78.14
2023-01-13T05:56:33.395Z,78.25
2023-01-13T05:57:32.615Z,78.25
2023-01-13T05:58:33.195Z,78.14
2023-01-13T05:59:33.363Z,78.25
2023-01-13T06:00:33.195Z,78.25
2023-01-13T06:01:33.404Z,78.39
2023-01-13T06:02:33.359Z,78.49
2023-01-13T06:03:33.266Z,78.59
2023-01-13T06:04:33.299Z,78.39
2023-01-13T06:05:33.254Z,78.59
2023-01-13T06:06:33.315Z,78.70
2023-01-13T06:07:33.132Z,78.59
2023-01-13T06:08:33.195Z,79.11
2023-01-13T06:09:33.024Z,78.80
2023-01-13T06:10:33.164Z,78.70
2023-01-13T06:11:33.265Z,78.39
2023-01-13T06:12:33.316Z,78.35
2023-01-13T06:13:33.028Z,78.35
2023-01-13T06:14:33.192Z,78.25
2023-01-13T06:15:33.088Z,78.14
2023-01-13T06:16:33.221Z,77.94
2023-01-13T06:17:33.135Z,77.94
2023-01-13T06:18:33.113Z,78.05
2023-01-13T06:19:33.166Z,78.35
2023-01-13T06:20:33.074Z,78.45
2023-01-13T06:21:33.374Z,77.84
2023-01-13T06:22:33.145Z,77.53
2023-01-13T06:23:33.072Z,77.53
2023-01-13T06:24:32.914Z,77.53
2023-01-13T06:25:33.085Z,77.91
2023-01-13T06:26:32.915Z,77.84
2023-01-13T06:27:33.166Z,77.22
2023-01-13T06:28:32.883Z,76.70
2023-01-13T06:29:33.087Z,76.50
2023-01-13T06:30:32.878Z,76.67
2023-01-13T06:31:33.218Z,76.46
2023-01-13T06:32:32.975Z,77.18
2023-01-13T06:33:33.026Z,76.98
2023-01-13T06:34:32.925Z,76.35
2023-01-13T06:35:33.684Z,76.56
2023-01-13T06:36:32.913Z,76.46
2023-01-13T06:37:32.718Z,77.18
2023-01-13T06:38:33.037Z,76.98
2023-01-13T06:39:32.797Z,76.77
2023-01-13T06:40:32.927Z,76.98
2023-01-13T06:41:32.735Z,76.25
2023-01-13T06:42:32.887Z,76.04
2023-01-13T06:43:32.807Z,75.84
2023-01-13T06:44:32.874Z,76.15
2023-01-13T06:45:32.966Z,76.04
2023-01-13T06:46:32.986Z,76.98
2023-01-13T06:47:32.797Z,78.01
2023-01-13T06:48:32.975Z,77.70
2023-01-13T06:49:32.770Z,77.70
2023-01-13T06:50:32.812Z,77.28
2023-01-13T06:51:32.716Z,77.28
2023-01-13T06:52:32.823Z,77.08
2023-01-13T06:53:32.891Z,77.39
2023-01-13T06:54:32.818Z,78.31
2023-01-13T06:55:32.698Z,77.18
2023-01-13T06:56:32.674Z,77.76
2023-01-13T06:57:32.746Z,77.45
2023-01-13T06:58:32.768Z,77.56
2023-01-13T06:59:32.774Z,77.45
2023-01-13T07:00:32.664Z,77.56
2023-01-13T07:01:32.883Z,77.56
2023-01-13T07:02:32.566Z,77.97
2023-01-13T07:03:32.714Z,77.49
2023-01-13T07:04:32.628Z,77.25
2023-01-13T07:05:32.620Z,77.49
2023-01-13T07:06:32.565Z,77.80
2023-01-13T07:07:32.753Z,77.18
2023-01-13T07:08:32.565Z,76.98
2023-01-13T07:09:32.505Z,77.18
2023-01-13T07:10:32.545Z,76.87
2023-01-13T07:11:32.415Z,76.77
2023-01-13T07:12:32.583Z,76.98
2023-01-13T07:13:32.504Z,76.87
2023-01-13T07:14:32.643Z,77.39
2023-01-13T07:15:32.424Z,77.08
2023-01-13T07:16:32.611Z,76.77
2023-01-13T07:17:32.454Z,77.08
2023-01-13T07:18:32.533Z,77.08
2023-01-13T07:19:32.585Z,76.98
2023-01-13T07:20:32.470Z,77.08
2023-01-13T07:21:32.435Z,77.18
2023-01-13T07:22:32.515Z,77.08
2023-01-13T07:23:32.434Z,77.18
2023-01-13T07:24:32.287Z,76.98
2023-01-13T07:25:32.424Z,76.67
2023-01-13T07:26:32.365Z,76.56
2023-01-13T07:27:32.375Z,76.67
2023-01-13T07:28:32.334Z,76.42
2023-01-13T07:29:32.453Z,76.12
2023-01-13T07:30:32.216Z,75.91
2023-01-13T07:31:32.565Z,75.81
2023-01-13T07:32:32.427Z,76.01
2023-01-13T07:33:32.457Z,75.91
2023-01-13T07:34:32.347Z,75.70
2023-01-13T07:35:32.403Z,75.39
2023-01-13T07:36:32.283Z,75.46
2023-01-13T07:37:32.319Z,75.05
2023-01-13T07:38:32.311Z,74.95
2023-01-13T07:39:32.274Z,74.74
2023-01-13T07:40:32.501Z,74.53
2023-01-13T07:41:32.093Z,75.36
2023-01-13T07:42:32.298Z,75.05
2023-01-13T07:43:32.071Z,75.15
2023-01-13T07:44:32.294Z,74.71
2023-01-13T07:45:32.228Z,74.60
2023-01-13T07:46:32.314Z,74.29
2023-01-13T07:47:32.033Z,74.80
2023-01-13T07:48:32.263Z,74.50
2023-01-13T07:49:32.055Z,74.60
2023-01-13T07:50:32.316Z,76.18
2023-01-13T07:51:32.094Z,75.22
2023-01-13T07:52:32.263Z,74.71
2023-01-13T07:53:32.103Z,74.60
2023-01-13T07:54:40.670Z,74.71
2023-01-13T07:55:32.163Z,74.80
2023-01-13T07:56:31.958Z,74.50
2023-01-13T07:57:32.203Z,74.29
2023-01-13T07:58:31.939Z,74.40
2023-01-13T07:59:32.184Z,75.22
2023-01-13T08:00:31.975Z,74.77
2023-01-13T08:01:32.504Z,74.05
2023-01-13T08:02:31.972Z,73.95
2023-01-13T08:03:32.070Z,73.85
2023-01-13T08:04:32.072Z,73.74
2023-01-13T08:05:32.110Z,74.46
2023-01-13T08:06:31.896Z,74.26
2023-01-13T08:07:32.078Z,74.05
2023-01-13T08:08:31.903Z,74.67
2023-01-13T08:09:31.937Z,75.18
2023-01-13T08:10:31.958Z,74.02
2023-01-13T08:11:31.953Z,73.09
2023-01-13T08:12:31.955Z,73.36
2023-01-13T08:13:31.718Z,72.54
2023-01-13T08:14:31.923Z,72.54
2023-01-13T08:15:31.784Z,73.36
2023-01-13T08:16:31.916Z,73.57
2023-01-13T08:17:31.759Z,72.13
2023-01-13T08:18:31.904Z,72.75
2023-01-13T08:19:32.184Z,73.16
2023-01-13T08:20:31.920Z,74.40
2023-01-13T08:21:31.785Z,73.74
2023-01-13T08:22:31.880Z,72.81
2023-01-13T08:23:31.959Z,72.38
2023-01-13T08:24:31.904Z,72.27
2023-01-13T08:25:31.715Z,72.24
2023-01-13T08:26:31.698Z,71.31
2023-01-13T08:27:31.756Z,71.62
2023-01-13T08:28:31.635Z,71.41
2023-01-13T08:29:31.750Z,71.72
2023-01-13T08:30:31.609Z,71.08
2023-01-13T08:31:31.994Z,70.79
2023-01-13T08:32:31.608Z,70.49
2023-01-13T08:33:31.759Z,71.28
2023-01-13T08:34:31.726Z,71.89
2023-01-13T08:35:31.745Z,71.08
2023-01-13T08:36:31.708Z,71.11
2023-01-13T08:37:31.665Z,71.21
2023-01-13T08:38:31.592Z,71.21
2023-01-13T08:39:31.654Z,71.41
2023-01-13T08:40:31.621Z,72.75
2023-01-13T08:41:31.510Z,71.96
2023-01-13T08:42:31.745Z,73.54
2023-01-13T08:43:31.427Z,73.64
2023-01-13T08:44:31.572Z,74.87
2023-01-13T08:45:31.457Z,73.85
2023-01-13T08:46:31.940Z,73.74
2023-01-13T08:47:31.482Z,73.64
2023-01-13T08:48:31.857Z,74.15
2023-01-13T08:49:31.485Z,73.71
2023-01-13T08:50:31.666Z,73.02
2023-01-13T08:51:31.416Z,74.22
2023-01-13T08:52:31.636Z,73.30
2023-01-13T08:53:31.535Z,73.50
2023-01-13T08:54:31.614Z,73.50
2023-01-13T08:55:31.444Z,72.58
2023-01-13T08:56:35.059Z,72.99
2023-01-13T08:57:31.558Z,73.40
2023-01-13T08:58:31.745Z,73.91
2023-01-13T08:59:31.427Z,74.02
2023-01-13T09:00:31.471Z,73.78
2023-01-13T09:01:31.502Z,74.36
2023-01-13T09:02:31.730Z,72.82
2023-01-13T09:03:31.446Z,72.72
2023-01-13T09:04:31.359Z,73.78
2023-01-13T09:05:31.444Z,74.19
2023-01-13T09:06:31.285Z,73.74
2023-01-13T09:07:31.488Z,74.15
2023-01-13T09:08:31.453Z,73.23
2023-01-13T09:09:31.313Z,73.13
2023-01-13T09:10:31.256Z,73.54
2023-01-13T09:11:31.185Z,73.85
2023-01-13T09:12:31.390Z,73.64
2023-01-13T09:13:31.106Z,73.74
2023-01-13T09:14:31.302Z,74.57
2023-01-13T09:15:31.168Z,73.91
2023-01-13T09:16:31.310Z,74.19
2023-01-13T09:17:31.182Z,73.36
2023-01-13T09:18:31.374Z,73.19
2023-01-13T09:19:31.182Z,74.63
2023-01-13T09:20:31.246Z,73.98
2023-01-13T09:21:31.123Z,74.29
2023-01-13T09:22:31.226Z,73.71
2023-01-13T09:23:31.195Z,73.57
2023-01-13T09:24:31.236Z,73.81
2023-01-13T09:25:31.124Z,73.57
2023-01-13T09:26:30.957Z,74.19
2023-01-13T09:27:31.084Z,73.13
2023-01-13T09:28:31.039Z,71.62
2023-01-13T09:29:31.134Z,72.03
2023-01-13T09:30:31.033Z,73.23
2023-01-13T09:31:31.205Z,73.57
2023-01-13T09:32:30.981Z,73.64
2023-01-13T09:33:31.140Z,73.33
2023-01-13T09:34:30.955Z,73.68
2023-01-13T09:35:31.064Z,74.57
2023-01-13T09:36:31.066Z,74.12
2023-01-13T09:37:31.146Z,72.72
2023-01-13T09:38:31.044Z,73.02
2023-01-13T09:39:31.035Z,73.64
2023-01-13T09:40:30.936Z,73.30
2023-01-13T09:41:30.862Z,72.06
2023-01-13T09:42:30.946Z,71.55
2023-01-13T09:43:30.895Z,71.66
2023-01-13T09:44:31.014Z,72.58
2023-01-13T09:45:30.808Z,72.44
2023-01-13T09:46:30.964Z,71.04
2023-01-13T09:47:30.810Z,71.83
2023-01-13T09:48:31.311Z,71.21
2023-01-13T09:49:30.859Z,72.55
2023-01-13T09:50:30.865Z,72.65
2023-01-13T09:51:30.881Z,71.52
2023-01-13T09:52:30.961Z,71.90
2023-01-13T09:53:30.819Z,72.00
2023-01-13T09:54:30.984Z,70.97
2023-01-13T09:55:30.876Z,70.43
2023-01-13T09:56:30.606Z,70.43
2023-01-13T09:57:30.846Z,71.11
2023-01-13T09:58:30.736Z,69.17
2023-01-13T09:59:30.883Z,70.36
2023-01-13T10:00:30.689Z,69.24
2023-01-13T10:01:30.832Z,69.27
2023-01-13T10:02:30.688Z,69.47
2023-01-13T10:03:30.898Z,70.43
2023-01-13T10:04:30.785Z,69.78
2023-01-13T10:05:30.800Z,70.09
2023-01-13T10:06:30.657Z,69.89
2023-01-13T10:07:30.735Z,69.10
2023-01-13T10:08:30.746Z,69.74
2023-01-13T10:09:31.030Z,70.18
2023-01-13T10:10:30.643Z,70.80
2023-01-13T10:11:30.514Z,71.42
2023-01-13T10:12:30.665Z,71.83
2023-01-13T10:13:30.529Z,71.66
2023-01-13T10:14:30.725Z,71.76
2023-01-13T10:15:30.467Z,71.83
2023-01-13T10:16:30.675Z,71.21
2023-01-13T10:17:30.521Z,71.31
2023-01-13T10:18:30.620Z,71.62
2023-01-13T10:19:30.493Z,71.62
2023-01-13T10:20:30.652Z,71.52
2023-01-13T10:21:30.630Z,71.80
2023-01-13T10:22:30.765Z,72.00
2023-01-13T10:23:30.494Z,72.72
2023-01-13T10:24:30.555Z,72.92
2023-01-13T10:25:30.624Z,73.27
2023-01-13T10:26:30.347Z,73.47
2023-01-13T10:27:30.537Z,73.57
2023-01-13T10:28:30.357Z,73.85
2023-01-13T10:29:29.704Z,73.88
2023-01-13T10:30:30.396Z,74.08
2023-01-13T10:31:30.489Z,74.60
2023-01-13T10:32:30.357Z,74.60
2023-01-13T10:33:30.612Z,74.60
2023-01-13T10:34:30.450Z,74.49
2023-01-13T10:35:30.430Z,74.15
2023-01-13T10:36:30.403Z,73.95
2023-01-13T10:37:30.415Z,73.85
2023-01-13T10:38:30.353Z,74.84
2023-01-13T10:39:30.495Z,73.40
2023-01-13T10:40:30.296Z,73.19
2023-01-13T10:41:30.225Z,73.27
2023-01-13T10:42:30.328Z,73.06
2023-01-13T10:43:30.243Z,73.13
2023-01-13T10:44:30.306Z,71.90
2023-01-13T10:45:30.166Z,71.90
2023-01-13T10:46:30.409Z,71.93
2023-01-13T10:47:30.183Z,72.55
2023-01-13T10:48:30.253Z,72.75
2023-01-13T10:49:30.354Z,72.17
2023-01-13T10:50:30.286Z,72.48
2023-01-13T10:51:30.274Z,72.48
2023-01-13T10:52:30.317Z,72.78
2023-01-13T10:53:30.186Z,72.89
2023-01-13T10:54:30.579Z,72.68
2023-01-13T10:55:30.191Z,72.89
2023-01-13T10:56:30.093Z,73.10
2023-01-13T10:57:30.236Z,73.30
2023-01-13T10:58:30.030Z,73.61
2023-01-13T10:59:30.210Z,73.36
2023-01-13T11:00:30.007Z,73.88
2023-01-13T11:01:30.511Z,73.36
2023-01-13T11:02:30.363Z,73.57
2023-01-13T11:03:30.194Z,74.53
2023-01-13T11:04:30.252Z,74.87
2023-01-13T11:05:30.106Z,75.24
2023-01-13T11:06:30.084Z,75.45
2023-01-13T11:07:30.072Z,75.35
2023-01-13T11:08:30.054Z,75.24
2023-01-13T11:09:30.100Z,75.31
2023-01-13T11:10:30.008Z,74.84
2023-01-13T11:11:29.895Z,74.70
2023-01-13T11:12:29.988Z,74.80
2023-01-13T11:13:29.906Z,74.90
2023-01-13T11:14:30.045Z,74.90
2023-01-13T11:15:29.898Z,74.39
2023-01-13T11:16:30.167Z,74.60
2023-01-13T11:17:29.854Z,74.36
2023-01-13T11:18:30.327Z,75.11
2023-01-13T11:19:29.835Z,75.11
2023-01-13T11:20:30.166Z,75.52
2023-01-13T11:21:29.902Z,75.82
2023-01-13T11:22:29.926Z,76.03
2023-01-13T11:23:29.836Z,76.03
2023-01-13T11:24:29.938Z,75.59
2023-01-13T11:25:29.800Z,74.97
2023-01-13T11:26:29.716Z,75.07
2023-01-13T11:27:29.916Z,75.07
2023-01-13T11:28:29.855Z,74.87
2023-01-13T11:29:29.865Z,75.24
2023-01-13T11:30:29.711Z,74.84
2023-01-13T11:31:29.818Z,74.60
2023-01-13T11:32:29.777Z,74.39
2023-01-13T11:33:29.831Z,74.19
2023-01-13T11:34:29.689Z,73.94
2023-01-13T11:35:29.783Z,73.85
2023-01-13T11:36:29.786Z,74.05
2023-01-13T11:37:29.839Z,73.85
2023-01-13T11:38:29.875Z,74.52
2023-01-13T11:39:29.754Z,73.30
2023-01-13T11:40:29.736Z,73.10
2023-01-13T11:41:29.477Z,72.99
2023-01-13T11:42:29.745Z,73.06
2023-01-13T11:43:29.485Z,73.36
2023-01-13T11:44:29.733Z,73.36
2023-01-13T11:45:29.539Z,73.16
2023-01-13T11:46:29.744Z,73.36
2023-01-13T11:47:29.658Z,73.47
2023-01-13T11:48:29.667Z,74.29
2023-01-13T11:49:29.574Z,73.91
2023-01-13T11:50:29.736Z,74.22
2023-01-13T11:51:29.581Z,74.43
2023-01-13T11:52:29.696Z,74.18
2023-01-13T11:53:29.526Z,73.68
2023-01-13T11:54:29.675Z,72.34
2023-01-13T11:55:29.605Z,72.72
2023-01-13T11:56:29.384Z,72.31
2023-01-13T11:57:29.575Z,72.11
2023-01-13T11:58:31.767Z,71.59
2023-01-13T11:59:29.562Z,71.15
2023-01-13T12:00:29.345Z,71.05
2023-01-13T12:01:29.511Z,71.26
2023-01-13T12:02:29.412Z,70.85
2023-01-13T12:03:29.595Z,71.26
2023-01-13T12:04:29.410Z,71.56
2023-01-13T12:05:29.515Z,71.53
2023-01-13T12:06:29.366Z,71.80
2023-01-13T12:07:29.585Z,71.29
2023-01-13T12:08:29.476Z,69.76
2023-01-13T12:09:29.605Z,69.46
2023-01-13T12:10:29.576Z,69.86
2023-01-13T12:11:29.182Z,70.00
2023-01-13T12:12:29.564Z,69.90
2023-01-13T12:13:29.541Z,69.69
2023-01-13T12:14:29.746Z,69.69
2023-01-13T12:15:29.182Z,70.40
2023-01-13T12:16:29.753Z,69.38
2023-01-13T12:17:29.250Z,70.07
2023-01-13T12:18:29.343Z,69.56
2023-01-13T12:19:29.318Z,69.66
2023-01-13T12:20:29.347Z,68.95
2023-01-13T12:21:29.177Z,69.46
2023-01-13T12:22:29.254Z,68.84
2023-01-13T12:23:29.608Z,69.35
2023-01-13T12:24:29.327Z,67.72
2023-01-13T12:25:29.225Z,67.96
2023-01-13T12:26:29.157Z,68.47
2023-01-13T12:27:29.295Z,68.67
2023-01-13T12:28:29.101Z,69.29
2023-01-13T12:29:29.187Z,68.57
2023-01-13T12:30:29.060Z,68.19
2023-01-13T12:31:29.202Z,68.80
2023-01-13T12:32:29.054Z,68.80
2023-01-13T12:33:29.206Z,69.32
2023-01-13T12:34:29.046Z,68.98
2023-01-13T12:35:29.304Z,68.47
2023-01-13T12:36:29.075Z,68.98
2023-01-13T12:37:29.214Z,68.77
2023-01-13T12:38:29.375Z,68.16
2023-01-13T12:39:29.114Z,68.37
2023-01-13T12:40:29.125Z,67.82
2023-01-13T12:41:29.103Z,67.93
2023-01-13T12:42:29.244Z,68.74
2023-01-13T12:43:28.955Z,68.03
2023-01-13T12:44:29.115Z,68.64
2023-01-13T12:45:29.036Z,69.05
2023-01-13T12:46:29.283Z,69.35
2023-01-13T12:47:28.843Z,66.09
2023-01-13T12:48:29.050Z,66.60
2023-01-13T12:49:28.915Z,67.21
2023-01-13T12:50:28.965Z,67.62
2023-01-13T12:51:28.991Z,66.70
2023-01-13T12:52:29.166Z,66.70